Time;durP1;ratioP1;P1;durP2;ratioP2;P2;SDS_P1;SDS_P2;PMS_P1;PMS_P2;Temp;Humidity;BMP_temperature;BMP_pressure;BME280_temperature;BME280_humidity;BME280_pressure;Samples;Min_cycle;Max_cycle;Signal;HPM_P1;HPM_P2
2022/04/11 00:00:00;;;;;;;8.6;6.3;;;;;;;6.6;100.0;101700;;;;
2022/04/11 00:01:01;;;;;;;8.6;6.3;;;;;;;6.5;100.0;101700;;;;
2022/04/11 00:02:00;;;;;;;7.5;6.8;;;;;;;6.5;100.0;101700;;;;
2022/04/11 00:03:00;;;;;;;7.5;6.8;;;;;;;6.6;100.0;101700;;;;
2022/04/11 00:04:00;;;;;;;7.5;6.8;;;;;;;6.6;100.0;101700;;;;
2022/04/11 00:05:00;;;;;;;7.5;6.8;;;;;;;6.5;100.0;101700;;;;
2022/04/11 00:06:00;;;;;;;7.5;6.8;;;;;;;6.5;100.0;101700;;;;
2022/04/11 00:07:00;;;;;;;7.5;6.8;;;;;;;6.5;100.0;101700;;;;
2022/04/11 00:08:00;;;;;;;7.5;6.8;;;;;;;6.5;100.0;101700;;;;
2022/04/11 00:09:00;;;;;;;7.5;6.8;;;;;;;6.4;100.0;101690;;;;
2022/04/11 00:10:00;;;;;;;7.5;6.8;;;;;;;6.4;100.0;101690;;;;
2022/04/11 00:11:01;;;;;;;7.5;6.8;;;;;;;6.4;100.0;101690;;;;
2022/04/11 00:12:00;;;;;;;7.5;6.8;;;;;;;6.4;100.0;101690;;;;
2022/04/11 00:13:05;;;;;;;7.5;6.8;;;;;;;6.3;100.0;101690;;;;
2022/04/11 00:14:01;;;;;;;7.5;6.8;;;;;;;6.3;100.0;101690;;;;
2022/04/11 00:15:00;;;;;;;7.5;6.8;;;;;;;6.3;100.0;101680;;;;
2022/04/11 00:16:00;;;;;;;7.5;6.8;;;;;;;6.3;100.0;101680;;;;
2022/04/11 00:17:00;;;;;;;7.5;6.8;;;;;;;6.3;100.0;101680;;;;
2022/04/11 00:18:01;;;;;;;7.5;6.8;;;;;;;6.3;100.0;101680;;;;
2022/04/11 00:19:00;;;;;;;7.5;6.8;;;;;;;6.3;100.0;101680;;;;
2022/04/11 00:20:00;;;;;;;7.5;6.8;;;;;;;6.3;100.0;101680;;;;
2022/04/11 00:21:01;;;;;;;7.5;6.8;;;;;;;6.3;100.0;101680;;;;
2022/04/11 00:22:00;;;;;;;9.1;7.4;;;;;;;6.3;100.0;101680;;;;
2022/04/11 00:23:00;;;;;;;9.1;7.4;;;;;;;6.3;100.0;101680;;;;
2022/04/11 00:24:00;;;;;;;9.1;7.4;;;;;;;6.3;100.0;101680;;;;
2022/04/11 00:25:00;;;;;;;9.1;7.4;;;;;;;6.3;100.0;101680;;;;
2022/04/11 00:26:00;;;;;;;9.1;7.4;;;;;;;6.3;100.0;101680;;;;
2022/04/11 00:27:00;;;;;;;9.1;7.4;;;;;;;6.3;100.0;101680;;;;
2022/04/11 00:28:00;;;;;;;9.1;7.4;;;;;;;6.3;100.0;101680;;;;
2022/04/11 00:29:00;;;;;;;9.1;7.4;;;;;;;6.3;100.0;101670;;;;
2022/04/11 00:30:00;;;;;;;9.1;7.4;;;;;;;6.3;100.0;101670;;;;
2022/04/11 00:31:01;;;;;;;9.1;7.4;;;;;;;6.3;100.0;101670;;;;
2022/04/11 00:32:00;;;;;;;9.1;7.4;;;;;;;6.3;100.0;101670;;;;
2022/04/11 00:33:00;;;;;;;9.1;7.4;;;;;;;6.2;100.0;101670;;;;
2022/04/11 00:34:00;;;;;;;9.1;7.4;;;;;;;6.2;100.0;101670;;;;
2022/04/11 00:35:02;;;;;;;9.1;7.4;;;;;;;6.2;100.0;101660;;;;
2022/04/11 00:36:00;;;;;;;9.1;7.4;;;;;;;6.2;100.0;101660;;;;
2022/04/11 00:37:00;;;;;;;9.1;7.4;;;;;;;6.2;100.0;101660;;;;
2022/04/11 00:38:00;;;;;;;9.1;7.4;;;;;;;6.2;100.0;101660;;;;
2022/04/11 00:39:00;;;;;;;9.1;7.4;;;;;;;6.2;100.0;101660;;;;
2022/04/11 00:40:00;;;;;;;9.1;7.4;;;;;;;6.2;100.0;101660;;;;
2022/04/11 00:41:00;;;;;;;9.1;7.4;;;;;;;6.2;100.0;101660;;;;
2022/04/11 00:42:07;;;;;;;9.3;8.2;;;;;;;6.2;100.0;101660;;;;
2022/04/11 00:43:00;;;;;;;9.3;8.2;;;;;;;6.2;100.0;101660;;;;
2022/04/11 00:44:00;;;;;;;9.3;8.2;;;;;;;6.2;100.0;101660;;;;
2022/04/11 00:45:00;;;;;;;9.3;8.2;;;;;;;6.1;100.0;101650;;;;
2022/04/11 00:46:00;;;;;;;9.3;8.2;;;;;;;6.1;100.0;101650;;;;
2022/04/11 00:47:00;;;;;;;9.3;8.2;;;;;;;6.1;100.0;101650;;;;
2022/04/11 00:48:00;;;;;;;9.3;8.2;;;;;;;6.1;100.0;101650;;;;
2022/04/11 00:49:00;;;;;;;9.3;8.2;;;;;;;6.1;100.0;101650;;;;
2022/04/11 00:50:02;;;;;;;9.3;8.2;;;;;;;6.1;100.0;101650;;;;
2022/04/11 00:51:02;;;;;;;9.3;8.2;;;;;;;6.1;100.0;101650;;;;
2022/04/11 00:52:00;;;;;;;9.3;8.2;;;;;;;6.1;100.0;101650;;;;
2022/04/11 00:53:00;;;;;;;9.3;8.2;;;;;;;6.1;100.0;101650;;;;
2022/04/11 00:54:00;;;;;;;9.3;8.2;;;;;;;6.1;100.0;101650;;;;
2022/04/11 00:55:00;;;;;;;9.3;8.2;;;;;;;6.1;100.0;101650;;;;
2022/04/11 00:56:01;;;;;;;9.3;8.2;;;;;;;6.1;100.0;101650;;;;
2022/04/11 00:57:01;;;;;;;9.3;8.2;;;;;;;6.1;100.0;101640;;;;
2022/04/11 00:58:00;;;;;;;9.3;8.2;;;;;;;6.1;100.0;101640;;;;
2022/04/11 00:59:01;;;;;;;9.3;8.2;;;;;;;6.1;100.0;101640;;;;
2022/04/11 01:00:01;;;;;;;9.3;8.2;;;;;;;6.1;100.0;101640;;;;
2022/04/11 01:01:01;;;;;;;9.3;8.2;;;;;;;6.1;100.0;101640;;;;
2022/04/11 01:02:03;;;;;;;9.3;8.4;;;;;;;6.1;100.0;101640;;;;
2022/04/11 01:03:00;;;;;;;9.3;8.4;;;;;;;6.2;100.0;101640;;;;
2022/04/11 01:04:02;;;;;;;9.3;8.4;;;;;;;6.2;100.0;101640;;;;
2022/04/11 01:05:00;;;;;;;9.3;8.4;;;;;;;6.1;100.0;101640;;;;
2022/04/11 01:06:00;;;;;;;9.3;8.4;;;;;;;6.1;100.0;101640;;;;
2022/04/11 01:07:00;;;;;;;9.3;8.4;;;;;;;6.2;100.0;101630;;;;
2022/04/11 01:08:04;;;;;;;9.3;8.4;;;;;;;6.2;100.0;101630;;;;
2022/04/11 01:09:00;;;;;;;9.3;8.4;;;;;;;6.1;100.0;101630;;;;
2022/04/11 01:10:00;;;;;;;9.3;8.4;;;;;;;6.1;100.0;101630;;;;
2022/04/11 01:11:01;;;;;;;9.3;8.4;;;;;;;6.1;100.0;101630;;;;
2022/04/11 01:12:01;;;;;;;9.3;8.4;;;;;;;6.1;100.0;101630;;;;
2022/04/11 01:13:00;;;;;;;9.3;8.4;;;;;;;6.1;100.0;101630;;;;
2022/04/11 01:14:00;;;;;;;9.3;8.4;;;;;;;6.1;100.0;101630;;;;
2022/04/11 01:15:00;;;;;;;9.3;8.4;;;;;;;6.0;100.0;101630;;;;
2022/04/11 01:16:02;;;;;;;9.3;8.4;;;;;;;6.0;100.0;101630;;;;
2022/04/11 01:17:00;;;;;;;9.3;8.4;;;;;;;6.0;100.0;101620;;;;
2022/04/11 01:18:00;;;;;;;9.3;8.4;;;;;;;6.0;100.0;101620;;;;
2022/04/11 01:19:00;;;;;;;9.3;8.4;;;;;;;6.1;100.0;101620;;;;
2022/04/11 01:20:05;;;;;;;9.3;8.4;;;;;;;6.1;100.0;101620;;;;
2022/04/11 01:21:01;;;;;;;9.3;8.4;;;;;;;6.0;100.0;101620;;;;
2022/04/11 01:22:00;;;;;;;9.1;8.2;;;;;;;6.0;100.0;101620;;;;
2022/04/11 01:23:00;;;;;;;9.1;8.2;;;;;;;6.1;100.0;101620;;;;
2022/04/11 01:24:00;;;;;;;9.1;8.2;;;;;;;6.1;100.0;101620;;;;
2022/04/11 01:25:01;;;;;;;9.1;8.2;;;;;;;6.1;100.0;101620;;;;
2022/04/11 01:26:00;;;;;;;9.1;8.2;;;;;;;6.1;100.0;101620;;;;
2022/04/11 01:27:00;;;;;;;9.1;8.2;;;;;;;6.0;100.0;101620;;;;
2022/04/11 01:28:00;;;;;;;9.1;8.2;;;;;;;6.0;100.0;101620;;;;
2022/04/11 01:29:02;;;;;;;9.1;8.2;;;;;;;6.1;100.0;101620;;;;
2022/04/11 01:30:00;;;;;;;9.1;8.2;;;;;;;6.1;100.0;101620;;;;
2022/04/11 01:31:00;;;;;;;9.1;8.2;;;;;;;6.1;100.0;101620;;;;
2022/04/11 01:32:02;;;;;;;9.1;8.2;;;;;;;6.1;100.0;101620;;;;
2022/04/11 01:33:00;;;;;;;9.1;8.2;;;;;;;6.0;100.0;101620;;;;
2022/04/11 01:34:00;;;;;;;9.1;8.2;;;;;;;6.0;100.0;101620;;;;
2022/04/11 01:35:00;;;;;;;9.1;8.2;;;;;;;6.0;100.0;101620;;;;
2022/04/11 01:36:00;;;;;;;9.1;8.2;;;;;;;6.0;100.0;101620;;;;
2022/04/11 01:37:00;;;;;;;9.1;8.2;;;;;;;6.0;100.0;101620;;;;
2022/04/11 01:38:00;;;;;;;9.1;8.2;;;;;;;6.0;100.0;101620;;;;
2022/04/11 01:39:00;;;;;;;9.1;8.2;;;;;;;6.1;100.0;101620;;;;
2022/04/11 01:40:00;;;;;;;9.1;8.2;;;;;;;6.1;100.0;101620;;;;
2022/04/11 01:41:01;;;;;;;9.1;8.2;;;;;;;6.0;100.0;101620;;;;
2022/04/11 01:42:00;;;;;;;9.9;9.0;;;;;;;6.0;100.0;101620;;;;
2022/04/11 01:43:00;;;;;;;9.9;9.0;;;;;;;6.0;100.0;101620;;;;
2022/04/11 01:44:00;;;;;;;9.9;9.0;;;;;;;6.0;100.0;101620;;;;
2022/04/11 01:45:00;;;;;;;9.9;9.0;;;;;;;5.9;100.0;101620;;;;
2022/04/11 01:46:00;;;;;;;9.9;9.0;;;;;;;5.9;100.0;101620;;;;
2022/04/11 01:47:00;;;;;;;9.9;9.0;;;;;;;5.9;100.0;101620;;;;
2022/04/11 01:48:00;;;;;;;9.9;9.0;;;;;;;5.9;100.0;101620;;;;
2022/04/11 01:49:00;;;;;;;9.9;9.0;;;;;;;5.9;100.0;101620;;;;
2022/04/11 01:50:00;;;;;;;9.9;9.0;;;;;;;5.9;100.0;101620;;;;
2022/04/11 01:51:00;;;;;;;9.9;9.0;;;;;;;5.9;100.0;101620;;;;
2022/04/11 01:52:00;;;;;;;9.9;9.0;;;;;;;5.9;100.0;101620;;;;
2022/04/11 01:53:04;;;;;;;9.9;9.0;;;;;;;6.0;100.0;101620;;;;
2022/04/11 01:54:00;;;;;;;9.9;9.0;;;;;;;6.0;100.0;101620;;;;
2022/04/11 01:55:12;;;;;;;9.9;9.0;;;;;;;5.9;100.0;101620;;;;
2022/04/11 01:56:00;;;;;;;9.9;9.0;;;;;;;5.9;100.0;101620;;;;
2022/04/11 01:57:00;;;;;;;9.9;9.0;;;;;;;5.9;100.0;101620;;;;
2022/04/11 01:58:00;;;;;;;9.9;9.0;;;;;;;5.9;100.0;101620;;;;
2022/04/11 01:59:00;;;;;;;9.9;9.0;;;;;;;5.9;100.0;101620;;;;
2022/04/11 02:00:00;;;;;;;9.9;9.0;;;;;;;5.9;100.0;101620;;;;
2022/04/11 02:01:02;;;;;;;9.9;9.0;;;;;;;5.9;100.0;101620;;;;
2022/04/11 02:02:00;;;;;;;10.9;9.8;;;;;;;5.9;100.0;101620;;;;
2022/04/11 02:03:01;;;;;;;10.9;9.8;;;;;;;5.9;100.0;101620;;;;
2022/04/11 02:04:00;;;;;;;10.9;9.8;;;;;;;5.9;100.0;101620;;;;
2022/04/11 02:05:00;;;;;;;10.9;9.8;;;;;;;5.9;100.0;101620;;;;
2022/04/11 02:06:00;;;;;;;10.9;9.8;;;;;;;5.9;100.0;101620;;;;
2022/04/11 02:07:00;;;;;;;10.9;9.8;;;;;;;5.9;100.0;101620;;;;
2022/04/11 02:08:00;;;;;;;10.9;9.8;;;;;;;5.9;100.0;101620;;;;
2022/04/11 02:09:00;;;;;;;10.9;9.8;;;;;;;5.9;100.0;101620;;;;
2022/04/11 02:10:00;;;;;;;10.9;9.8;;;;;;;5.9;100.0;101620;;;;
2022/04/11 02:11:00;;;;;;;10.9;9.8;;;;;;;5.8;100.0;101620;;;;
2022/04/11 02:12:00;;;;;;;10.9;9.8;;;;;;;5.8;100.0;101620;;;;
2022/04/11 02:13:00;;;;;;;10.9;9.8;;;;;;;5.9;100.0;101610;;;;
2022/04/11 02:14:00;;;;;;;10.9;9.8;;;;;;;5.9;100.0;101610;;;;
2022/04/11 02:15:00;;;;;;;10.9;9.8;;;;;;;5.8;100.0;101610;;;;
2022/04/11 02:16:00;;;;;;;10.9;9.8;;;;;;;5.8;100.0;101610;;;;
2022/04/11 02:17:00;;;;;;;10.9;9.8;;;;;;;5.9;100.0;101610;;;;
2022/04/11 02:18:00;;;;;;;10.9;9.8;;;;;;;5.9;100.0;101610;;;;
2022/04/11 02:19:00;;;;;;;10.9;9.8;;;;;;;5.8;100.0;101610;;;;
2022/04/11 02:20:00;;;;;;;10.9;9.8;;;;;;;5.8;100.0;101610;;;;
2022/04/11 02:21:01;;;;;;;10.9;9.8;;;;;;;5.8;100.0;101610;;;;
2022/04/11 02:22:00;;;;;;;11.4;10.3;;;;;;;5.8;100.0;101610;;;;
2022/04/11 02:23:00;;;;;;;11.4;10.3;;;;;;;5.8;100.0;101610;;;;
2022/04/11 02:24:00;;;;;;;11.4;10.3;;;;;;;5.8;100.0;101610;;;;
2022/04/11 02:25:00;;;;;;;11.4;10.3;;;;;;;5.8;100.0;101620;;;;
2022/04/11 02:26:00;;;;;;;11.4;10.3;;;;;;;5.8;100.0;101620;;;;
2022/04/11 02:27:00;;;;;;;11.4;10.3;;;;;;;5.7;100.0;101620;;;;
2022/04/11 02:28:00;;;;;;;11.4;10.3;;;;;;;5.7;100.0;101620;;;;
2022/04/11 02:29:00;;;;;;;11.4;10.3;;;;;;;5.7;100.0;101620;;;;
2022/04/11 02:30:00;;;;;;;11.4;10.3;;;;;;;5.7;100.0;101620;;;;
2022/04/11 02:31:00;;;;;;;11.4;10.3;;;;;;;5.7;100.0;101620;;;;
2022/04/11 02:32:00;;;;;;;11.4;10.3;;;;;;;5.7;100.0;101620;;;;
2022/04/11 02:33:00;;;;;;;11.4;10.3;;;;;;;5.7;100.0;101620;;;;
2022/04/11 02:34:00;;;;;;;11.4;10.3;;;;;;;5.7;100.0;101620;;;;
2022/04/11 02:35:00;;;;;;;11.4;10.3;;;;;;;5.7;100.0;101620;;;;
2022/04/11 02:36:00;;;;;;;11.4;10.3;;;;;;;5.7;100.0;101620;;;;
2022/04/11 02:37:00;;;;;;;11.4;10.3;;;;;;;5.7;100.0;101630;;;;
2022/04/11 02:38:00;;;;;;;11.4;10.3;;;;;;;5.7;100.0;101630;;;;
2022/04/11 02:39:00;;;;;;;11.4;10.3;;;;;;;5.6;100.0;101630;;;;
2022/04/11 02:40:01;;;;;;;11.4;10.3;;;;;;;5.6;100.0;101630;;;;
2022/04/11 02:41:00;;;;;;;11.4;9.9;;;;;;;5.6;100.0;101630;;;;
2022/04/11 02:42:00;;;;;;;10.8;9.9;;;;;;;5.6;100.0;101630;;;;
2022/04/11 02:43:00;;;;;;;10.8;9.9;;;;;;;5.6;100.0;101630;;;;
2022/04/11 02:44:00;;;;;;;10.8;9.9;;;;;;;5.6;100.0;101630;;;;
2022/04/11 02:45:00;;;;;;;10.8;9.9;;;;;;;5.6;100.0;101620;;;;
2022/04/11 02:46:00;;;;;;;10.8;9.9;;;;;;;5.6;100.0;101620;;;;
2022/04/11 02:47:00;;;;;;;10.8;9.9;;;;;;;5.5;100.0;101620;;;;
2022/04/11 02:48:00;;;;;;;10.8;9.9;;;;;;;5.5;100.0;101620;;;;
2022/04/11 02:49:00;;;;;;;10.8;9.9;;;;;;;5.6;100.0;101620;;;;
2022/04/11 02:50:00;;;;;;;10.8;9.9;;;;;;;5.6;100.0;101620;;;;
2022/04/11 02:51:00;;;;;;;10.8;9.9;;;;;;;5.5;100.0;101620;;;;
2022/04/11 02:52:00;;;;;;;10.8;9.9;;;;;;;5.5;100.0;101620;;;;
2022/04/11 02:53:00;;;;;;;10.8;9.9;;;;;;;5.5;100.0;101610;;;;
2022/04/11 02:54:02;;;;;;;10.8;9.9;;;;;;;5.5;100.0;101610;;;;
2022/04/11 02:55:00;;;;;;;10.8;9.9;;;;;;;5.5;100.0;101610;;;;
2022/04/11 02:56:00;;;;;;;10.8;9.9;;;;;;;5.5;100.0;101610;;;;
2022/04/11 02:57:00;;;;;;;10.8;9.9;;;;;;;5.4;100.0;101610;;;;
2022/04/11 02:58:00;;;;;;;10.8;9.9;;;;;;;5.4;100.0;101610;;;;
2022/04/11 02:59:00;;;;;;;10.8;9.9;;;;;;;5.4;100.0;101610;;;;
2022/04/11 03:00:00;;;;;;;10.8;9.9;;;;;;;5.4;100.0;101610;;;;
2022/04/11 03:01:01;;;;;;;11.8;10.7;;;;;;;5.4;100.0;101610;;;;
2022/04/11 03:02:01;;;;;;;11.8;10.7;;;;;;;5.4;100.0;101610;;;;
2022/04/11 03:03:00;;;;;;;11.8;10.7;;;;;;;5.4;100.0;101610;;;;
2022/04/11 03:04:00;;;;;;;11.8;10.7;;;;;;;5.4;100.0;101610;;;;
2022/04/11 03:05:00;;;;;;;11.8;10.7;;;;;;;5.4;100.0;101610;;;;
2022/04/11 03:06:00;;;;;;;11.8;10.7;;;;;;;5.4;100.0;101610;;;;
2022/04/11 03:07:00;;;;;;;11.8;10.7;;;;;;;5.3;100.0;101610;;;;
2022/04/11 03:08:00;;;;;;;11.8;10.7;;;;;;;5.3;100.0;101610;;;;
2022/04/11 03:09:00;;;;;;;11.8;10.7;;;;;;;5.2;100.0;101610;;;;
2022/04/11 03:10:00;;;;;;;11.8;10.7;;;;;;;5.2;100.0;101610;;;;
2022/04/11 03:11:00;;;;;;;11.8;10.7;;;;;;;5.2;100.0;101610;;;;
2022/04/11 03:12:00;;;;;;;11.8;10.7;;;;;;;5.2;100.0;101610;;;;
2022/04/11 03:13:00;;;;;;;11.8;10.7;;;;;;;5.2;100.0;101600;;;;
2022/04/11 03:14:00;;;;;;;11.8;10.7;;;;;;;5.2;100.0;101600;;;;
2022/04/11 03:15:00;;;;;;;11.8;10.7;;;;;;;5.2;100.0;101600;;;;
2022/04/11 03:16:00;;;;;;;11.8;10.7;;;;;;;5.2;100.0;101600;;;;
2022/04/11 03:17:00;;;;;;;11.8;10.7;;;;;;;5.1;100.0;101600;;;;
2022/04/11 03:18:00;;;;;;;11.8;10.7;;;;;;;5.1;100.0;101600;;;;
2022/04/11 03:19:00;;;;;;;11.8;10.7;;;;;;;5.1;100.0;101600;;;;
2022/04/11 03:20:00;;;;;;;11.8;10.7;;;;;;;5.1;100.0;101600;;;;
2022/04/11 03:21:00;;;;;;;11.4;10.2;;;;;;;5.1;100.0;101600;;;;
2022/04/11 03:22:00;;;;;;;11.4;10.2;;;;;;;5.1;100.0;101600;;;;
2022/04/11 03:23:00;;;;;;;11.4;10.2;;;;;;;5.1;100.0;101600;;;;
2022/04/11 03:24:00;;;;;;;11.4;10.2;;;;;;;5.1;100.0;101600;;;;
2022/04/11 03:25:00;;;;;;;11.4;10.2;;;;;;;5.0;100.0;101590;;;;
2022/04/11 03:26:00;;;;;;;11.4;10.2;;;;;;;5.0;100.0;101590;;;;
2022/04/11 03:27:00;;;;;;;11.4;10.2;;;;;;;5.0;100.0;101600;;;;
2022/04/11 03:28:02;;;;;;;11.4;10.2;;;;;;;5.0;100.0;101600;;;;
2022/04/11 03:29:00;;;;;;;11.4;10.2;;;;;;;4.9;100.0;101600;;;;
2022/04/11 03:30:00;;;;;;;11.4;10.2;;;;;;;4.9;100.0;101600;;;;
2022/04/11 03:31:00;;;;;;;11.4;10.2;;;;;;;4.8;100.0;101600;;;;
2022/04/11 03:32:00;;;;;;;11.4;10.2;;;;;;;4.8;100.0;101600;;;;
2022/04/11 03:33:00;;;;;;;11.4;10.2;;;;;;;4.8;100.0;101600;;;;
2022/04/11 03:34:00;;;;;;;11.4;10.2;;;;;;;4.8;100.0;101600;;;;
2022/04/11 03:35:00;;;;;;;11.4;10.2;;;;;;;4.8;100.0;101590;;;;
2022/04/11 03:36:00;;;;;;;11.4;10.2;;;;;;;4.8;100.0;101590;;;;
2022/04/11 03:37:00;;;;;;;11.4;10.2;;;;;;;4.8;100.0;101590;;;;
2022/04/11 03:38:00;;;;;;;11.4;10.2;;;;;;;4.8;100.0;101590;;;;
2022/04/11 03:39:00;;;;;;;11.4;10.2;;;;;;;4.8;100.0;101590;;;;
2022/04/11 03:40:00;;;;;;;11.4;10.2;;;;;;;4.8;100.0;101590;;;;
2022/04/11 03:41:00;;;;;;;12.4;11.1;;;;;;;4.8;100.0;101600;;;;
2022/04/11 03:42:00;;;;;;;12.4;11.1;;;;;;;4.8;100.0;101600;;;;
2022/04/11 03:43:00;;;;;;;12.4;11.1;;;;;;;4.7;100.0;101600;;;;
2022/04/11 03:44:00;;;;;;;12.4;11.1;;;;;;;4.7;100.0;101600;;;;
2022/04/11 03:45:00;;;;;;;12.4;11.1;;;;;;;4.7;100.0;101600;;;;
2022/04/11 03:46:00;;;;;;;12.4;11.1;;;;;;;4.7;100.0;101600;;;;
2022/04/11 03:47:00;;;;;;;12.4;11.1;;;;;;;4.7;100.0;101600;;;;
2022/04/11 03:48:00;;;;;;;12.4;11.1;;;;;;;4.7;100.0;101600;;;;
2022/04/11 03:49:00;;;;;;;12.4;11.1;;;;;;;4.7;100.0;101600;;;;
2022/04/11 03:50:00;;;;;;;12.4;11.1;;;;;;;4.7;100.0;101600;;;;
2022/04/11 03:51:06;;;;;;;12.4;11.1;;;;;;;4.6;100.0;101600;;;;
2022/04/11 03:52:00;;;;;;;12.4;11.1;;;;;;;4.6;100.0;101600;;;;
2022/04/11 03:53:00;;;;;;;12.4;11.1;;;;;;;4.5;100.0;101600;;;;
2022/04/11 03:54:00;;;;;;;12.4;11.1;;;;;;;4.5;100.0;101600;;;;
2022/04/11 03:55:00;;;;;;;12.4;11.1;;;;;;;4.6;100.0;101610;;;;
2022/04/11 03:56:00;;;;;;;12.4;11.1;;;;;;;4.6;100.0;101610;;;;
2022/04/11 03:57:00;;;;;;;12.4;11.1;;;;;;;4.5;100.0;101610;;;;
2022/04/11 03:58:00;;;;;;;12.4;11.1;;;;;;;4.5;100.0;101610;;;;
2022/04/11 03:59:00;;;;;;;12.4;11.1;;;;;;;4.5;100.0;101600;;;;
2022/04/11 04:00:00;;;;;;;12.4;11.1;;;;;;;4.5;100.0;101600;;;;
2022/04/11 04:01:01;;;;;;;12.4;11.4;;;;;;;4.6;100.0;101600;;;;
2022/04/11 04:02:00;;;;;;;12.4;11.4;;;;;;;4.6;100.0;101600;;;;
2022/04/11 04:03:03;;;;;;;12.4;11.4;;;;;;;4.5;100.0;101600;;;;
2022/04/11 04:04:00;;;;;;;12.4;11.4;;;;;;;4.5;100.0;101600;;;;
2022/04/11 04:05:00;;;;;;;12.4;11.4;;;;;;;4.5;100.0;101600;;;;
2022/04/11 04:06:00;;;;;;;12.4;11.4;;;;;;;4.5;100.0;101600;;;;
2022/04/11 04:07:00;;;;;;;12.4;11.4;;;;;;;4.4;100.0;101600;;;;
2022/04/11 04:08:00;;;;;;;12.4;11.4;;;;;;;4.4;100.0;101600;;;;
2022/04/11 04:09:00;;;;;;;12.4;11.4;;;;;;;4.4;100.0;101610;;;;
2022/04/11 04:10:00;;;;;;;12.4;11.4;;;;;;;4.4;100.0;101610;;;;
2022/04/11 04:11:01;;;;;;;12.4;11.4;;;;;;;4.4;100.0;101600;;;;
2022/04/11 04:12:00;;;;;;;12.4;11.4;;;;;;;4.4;100.0;101600;;;;
2022/04/11 04:13:01;;;;;;;12.4;11.4;;;;;;;4.4;100.0;101600;;;;
2022/04/11 04:14:00;;;;;;;12.4;11.4;;;;;;;4.4;100.0;101600;;;;
2022/04/11 04:15:00;;;;;;;12.4;11.4;;;;;;;4.3;100.0;101610;;;;
2022/04/11 04:16:00;;;;;;;12.4;11.4;;;;;;;4.3;100.0;101610;;;;
2022/04/11 04:17:00;;;;;;;12.4;11.4;;;;;;;4.3;100.0;101610;;;;
2022/04/11 04:18:00;;;;;;;12.4;11.4;;;;;;;4.3;100.0;101610;;;;
2022/04/11 04:19:00;;;;;;;12.4;11.4;;;;;;;4.3;100.0;101600;;;;
2022/04/11 04:20:00;;;;;;;12.4;11.4;;;;;;;4.3;100.0;101600;;;;
2022/04/11 04:21:01;;;;;;;13.1;11.9;;;;;;;4.3;100.0;101600;;;;
2022/04/11 04:22:00;;;;;;;13.1;11.9;;;;;;;4.3;100.0;101600;;;;
2022/04/11 04:23:02;;;;;;;13.1;11.9;;;;;;;4.3;100.0;101600;;;;
2022/04/11 04:24:00;;;;;;;13.1;11.9;;;;;;;4.3;100.0;101600;;;;
2022/04/11 04:25:00;;;;;;;13.1;11.9;;;;;;;4.2;100.0;101600;;;;
2022/04/11 04:26:00;;;;;;;13.1;11.9;;;;;;;4.2;100.0;101600;;;;
2022/04/11 04:27:02;;;;;;;13.1;11.9;;;;;;;4.2;100.0;101600;;;;
2022/04/11 04:28:00;;;;;;;13.1;11.9;;;;;;;4.2;100.0;101600;;;;
2022/04/11 04:29:00;;;;;;;13.1;11.9;;;;;;;4.2;100.0;101600;;;;
2022/04/11 04:30:00;;;;;;;13.1;11.9;;;;;;;4.2;100.0;101600;;;;
2022/04/11 04:31:00;;;;;;;13.1;11.9;;;;;;;4.2;100.0;101590;;;;
2022/04/11 04:32:00;;;;;;;13.1;11.9;;;;;;;4.2;100.0;101590;;;;
2022/04/11 04:33:00;;;;;;;13.1;11.9;;;;;;;4.2;100.0;101590;;;;
2022/04/11 04:34:00;;;;;;;13.1;11.9;;;;;;;4.2;100.0;101590;;;;
2022/04/11 04:35:00;;;;;;;13.1;11.9;;;;;;;4.2;100.0;101590;;;;
2022/04/11 04:36:00;;;;;;;13.1;11.9;;;;;;;4.2;100.0;101590;;;;
2022/04/11 04:37:00;;;;;;;13.1;11.9;;;;;;;4.1;100.0;101590;;;;
2022/04/11 04:38:00;;;;;;;13.1;11.9;;;;;;;4.1;100.0;101590;;;;
2022/04/11 04:39:02;;;;;;;13.1;11.9;;;;;;;4.1;100.0;101590;;;;
2022/04/11 04:40:00;;;;;;;13.1;11.9;;;;;;;4.1;100.0;101590;;;;
2022/04/11 04:41:01;;;;;;;12.5;11.3;;;;;;;4.2;100.0;101580;;;;
2022/04/11 04:42:00;;;;;;;12.5;11.3;;;;;;;4.2;100.0;101580;;;;
2022/04/11 04:43:00;;;;;;;12.5;11.3;;;;;;;4.1;100.0;101580;;;;
2022/04/11 04:44:00;;;;;;;12.5;11.3;;;;;;;4.1;100.0;101580;;;;
2022/04/11 04:45:00;;;;;;;12.5;11.3;;;;;;;4.0;100.0;101580;;;;
2022/04/11 04:46:00;;;;;;;12.5;11.3;;;;;;;4.0;100.0;101580;;;;
2022/04/11 04:47:00;;;;;;;12.5;11.3;;;;;;;3.9;100.0;101580;;;;
2022/04/11 04:48:00;;;;;;;12.5;11.3;;;;;;;3.9;100.0;101580;;;;
2022/04/11 04:49:00;;;;;;;12.5;11.3;;;;;;;4.1;100.0;101580;;;;
2022/04/11 04:50:00;;;;;;;12.5;11.3;;;;;;;4.1;100.0;101580;;;;
2022/04/11 04:51:00;;;;;;;12.5;11.3;;;;;;;4.1;100.0;101580;;;;
2022/04/11 04:52:01;;;;;;;12.5;11.3;;;;;;;4.1;100.0;101580;;;;
2022/04/11 04:53:00;;;;;;;12.5;11.3;;;;;;;4.0;100.0;101590;;;;
2022/04/11 04:54:00;;;;;;;12.5;11.3;;;;;;;4.0;100.0;101590;;;;
2022/04/11 04:55:00;;;;;;;12.5;11.3;;;;;;;4.1;100.0;101580;;;;
2022/04/11 04:56:00;;;;;;;12.5;11.3;;;;;;;4.1;100.0;101580;;;;
2022/04/11 04:57:00;;;;;;;12.5;11.3;;;;;;;4.0;100.0;101590;;;;
2022/04/11 04:58:00;;;;;;;12.5;11.3;;;;;;;4.0;100.0;101590;;;;
2022/04/11 04:59:00;;;;;;;12.5;11.3;;;;;;;4.0;100.0;101580;;;;
2022/04/11 05:00:00;;;;;;;12.5;11.3;;;;;;;4.0;100.0;101580;;;;
2022/04/11 05:01:01;;;;;;;14.3;11.6;;;;;;;4.0;100.0;101580;;;;
2022/04/11 05:02:00;;;;;;;14.3;11.6;;;;;;;4.0;100.0;101580;;;;
2022/04/11 05:03:00;;;;;;;14.3;11.6;;;;;;;4.1;100.0;101590;;;;
2022/04/11 05:04:01;;;;;;;14.3;11.6;;;;;;;4.1;100.0;101590;;;;
2022/04/11 05:05:04;;;;;;;14.3;11.6;;;;;;;4.0;100.0;101580;;;;
2022/04/11 05:06:00;;;;;;;14.3;11.6;;;;;;;4.0;100.0;101580;;;;
2022/04/11 05:07:00;;;;;;;14.3;11.6;;;;;;;3.9;100.0;101580;;;;
2022/04/11 05:08:00;;;;;;;14.3;11.6;;;;;;;3.9;100.0;101580;;;;
2022/04/11 05:09:00;;;;;;;14.3;11.6;;;;;;;3.9;100.0;101580;;;;
2022/04/11 05:10:01;;;;;;;14.3;11.6;;;;;;;3.9;100.0;101580;;;;
2022/04/11 05:11:01;;;;;;;14.3;11.6;;;;;;;4.0;100.0;101570;;;;
2022/04/11 05:12:00;;;;;;;14.3;11.6;;;;;;;4.0;100.0;101570;;;;
2022/04/11 05:13:01;;;;;;;14.3;11.6;;;;;;;3.9;100.0;101570;;;;
2022/04/11 05:14:00;;;;;;;14.3;11.6;;;;;;;3.9;100.0;101570;;;;
2022/04/11 05:15:02;;;;;;;14.3;11.6;;;;;;;3.9;100.0;101570;;;;
2022/04/11 05:16:01;;;;;;;14.3;11.6;;;;;;;3.9;100.0;101570;;;;
2022/04/11 05:17:00;;;;;;;14.3;11.6;;;;;;;4.0;100.0;101570;;;;
2022/04/11 05:18:00;;;;;;;14.3;11.6;;;;;;;4.0;100.0;101570;;;;
2022/04/11 05:19:00;;;;;;;14.3;11.6;;;;;;;3.9;100.0;101570;;;;
2022/04/11 05:20:00;;;;;;;14.3;11.6;;;;;;;3.9;100.0;101570;;;;
2022/04/11 05:21:00;;;;;;;14.3;12.8;;;;;;;4.0;100.0;101570;;;;
2022/04/11 05:22:00;;;;;;;14.3;12.8;;;;;;;4.0;100.0;101570;;;;
2022/04/11 05:23:00;;;;;;;14.3;12.8;;;;;;;3.9;100.0;101580;;;;
2022/04/11 05:24:00;;;;;;;14.3;12.8;;;;;;;3.9;100.0;101580;;;;
2022/04/11 05:25:00;;;;;;;14.3;12.8;;;;;;;4.0;100.0;101580;;;;
2022/04/11 05:26:01;;;;;;;14.3;12.8;;;;;;;4.0;100.0;101580;;;;
2022/04/11 05:27:00;;;;;;;14.3;12.8;;;;;;;4.0;100.0;101580;;;;
2022/04/11 05:28:00;;;;;;;14.3;12.8;;;;;;;4.0;100.0;101580;;;;
2022/04/11 05:29:00;;;;;;;14.3;12.8;;;;;;;4.0;100.0;101580;;;;
2022/04/11 05:30:00;;;;;;;14.3;12.8;;;;;;;4.0;100.0;101580;;;;
2022/04/11 05:31:00;;;;;;;14.3;12.8;;;;;;;3.9;100.0;101580;;;;
2022/04/11 05:32:00;;;;;;;14.3;12.8;;;;;;;3.9;100.0;101580;;;;
2022/04/11 05:33:00;;;;;;;14.3;12.8;;;;;;;3.9;100.0;101580;;;;
2022/04/11 05:34:01;;;;;;;14.3;12.8;;;;;;;3.9;100.0;101580;;;;
2022/04/11 05:35:00;;;;;;;14.3;12.8;;;;;;;3.9;100.0;101580;;;;
2022/04/11 05:36:00;;;;;;;14.3;12.8;;;;;;;3.9;100.0;101580;;;;
2022/04/11 05:37:00;;;;;;;14.3;12.8;;;;;;;4.0;100.0;101580;;;;
2022/04/11 05:38:00;;;;;;;14.3;12.8;;;;;;;4.0;100.0;101580;;;;
2022/04/11 05:39:00;;;;;;;14.3;12.8;;;;;;;4.1;100.0;101580;;;;
2022/04/11 05:40:00;;;;;;;14.3;12.8;;;;;;;4.1;100.0;101580;;;;
2022/04/11 05:41:00;;;;;;;14.8;13.5;;;;;;;4.1;100.0;101580;;;;
2022/04/11 05:42:00;;;;;;;14.8;13.5;;;;;;;4.1;100.0;101580;;;;
2022/04/11 05:43:00;;;;;;;14.8;13.5;;;;;;;4.1;100.0;101580;;;;
2022/04/11 05:44:00;;;;;;;14.8;13.5;;;;;;;4.1;100.0;101580;;;;
2022/04/11 05:45:00;;;;;;;14.8;13.5;;;;;;;4.1;100.0;101590;;;;
2022/04/11 05:46:02;;;;;;;14.8;13.5;;;;;;;4.1;100.0;101590;;;;
2022/04/11 05:47:00;;;;;;;14.8;13.5;;;;;;;4.2;100.0;101590;;;;
2022/04/11 05:48:00;;;;;;;14.8;13.5;;;;;;;4.2;100.0;101590;;;;
2022/04/11 05:49:00;;;;;;;14.8;13.5;;;;;;;4.1;100.0;101580;;;;
2022/04/11 05:50:00;;;;;;;14.8;13.5;;;;;;;4.1;100.0;101580;;;;
2022/04/11 05:51:00;;;;;;;14.8;13.5;;;;;;;4.2;100.0;101580;;;;
2022/04/11 05:52:00;;;;;;;14.8;13.5;;;;;;;4.2;100.0;101580;;;;
2022/04/11 05:53:01;;;;;;;14.8;13.5;;;;;;;4.2;100.0;101570;;;;
2022/04/11 05:54:02;;;;;;;14.8;13.5;;;;;;;4.2;100.0;101570;;;;
2022/04/11 05:55:00;;;;;;;14.8;13.5;;;;;;;4.2;100.0;101570;;;;
2022/04/11 05:56:00;;;;;;;14.8;13.5;;;;;;;4.2;100.0;101570;;;;
2022/04/11 05:57:00;;;;;;;14.8;13.5;;;;;;;4.3;100.0;101570;;;;
2022/04/11 05:58:00;;;;;;;14.8;13.5;;;;;;;4.3;100.0;101570;;;;
2022/04/11 05:59:03;;;;;;;14.8;13.5;;;;;;;4.4;100.0;101580;;;;
2022/04/11 06:00:00;;;;;;;14.8;13.5;;;;;;;4.4;100.0;101580;;;;
2022/04/11 06:01:00;;;;;;;13.8;12.5;;;;;;;4.3;100.0;101580;;;;
2022/04/11 06:02:00;;;;;;;13.8;12.5;;;;;;;4.3;100.0;101580;;;;
2022/04/11 06:03:00;;;;;;;13.8;12.5;;;;;;;4.3;100.0;101580;;;;
2022/04/11 06:04:00;;;;;;;13.8;12.5;;;;;;;4.3;100.0;101580;;;;
2022/04/11 06:05:00;;;;;;;13.8;12.5;;;;;;;4.5;100.0;101580;;;;
2022/04/11 06:06:01;;;;;;;13.8;12.5;;;;;;;4.5;100.0;101580;;;;
2022/04/11 06:07:00;;;;;;;13.8;12.5;;;;;;;4.5;100.0;101580;;;;
2022/04/11 06:08:00;;;;;;;13.8;12.5;;;;;;;4.5;100.0;101580;;;;
2022/04/11 06:09:00;;;;;;;13.8;12.5;;;;;;;4.4;100.0;101580;;;;
2022/04/11 06:10:00;;;;;;;13.8;12.5;;;;;;;4.4;100.0;101580;;;;
2022/04/11 06:11:00;;;;;;;13.8;12.5;;;;;;;4.6;100.0;101590;;;;
2022/04/11 06:12:00;;;;;;;13.8;12.5;;;;;;;4.6;100.0;101590;;;;
2022/04/11 06:13:00;;;;;;;13.8;12.5;;;;;;;4.7;100.0;101590;;;;
2022/04/11 06:14:00;;;;;;;13.8;12.5;;;;;;;4.7;100.0;101590;;;;
2022/04/11 06:15:00;;;;;;;13.8;12.5;;;;;;;4.8;100.0;101580;;;;
2022/04/11 06:16:01;;;;;;;13.8;12.5;;;;;;;4.8;100.0;101580;;;;
2022/04/11 06:17:00;;;;;;;13.8;12.5;;;;;;;4.7;100.0;101580;;;;
2022/04/11 06:18:00;;;;;;;13.8;12.5;;;;;;;4.7;100.0;101580;;;;
2022/04/11 06:19:00;;;;;;;13.8;12.5;;;;;;;4.8;100.0;101580;;;;
2022/04/11 06:20:00;;;;;;;13.8;12.5;;;;;;;4.8;100.0;101580;;;;
2022/04/11 06:21:00;;;;;;;14.1;12.9;;;;;;;4.8;100.0;101580;;;;